Main page
METAR-TAF:

METAR-TAF

Airports :

Islay Airport

Islay, Scotland

latitude: 55-40-55N, longitude: 006-15-24W, elevation: 16 m

Current weather observation

The report was made 30 minutes ago, at 22:20 UTC
Wind 10 kt from the Northeast, varying between North and East
Temperature 7°C
Humidity 70%
Pressure 1016 hPa
Visibility 10 km or more

METAR: EGPI 202220Z AUTO 05010KT 360V100 9999 SCT030/// 07/02 Q1016

Time: 22:50 (22:50 UTC)

Forecast

The report was made 8 hours and 49 minutes ago, at 14:01 UTC
Forecast valid from 20 at 15 UTC to 20 at 19 UTC
Wind 14 kt from the East/Northeast
Visibility 10 km or more
Scattered clouds at a height of 2500 ft
Probability 40% :
Temporary
from 20 at 15 UTC to 20 at 19 UTC
Wind 18 kt from the East with gusts up to 28 kt

TAF: EGPI 201401Z 2015/2019 07014KT 9999 SCT025 PROB40 TEMPO 2015/2019 09018G28KT

Weather observations and forecasts of more than 4000 airports (METAR and TAF reports).

The available stations are represented by yellow and red dots on the map.

Hover mouse over dot to see the name of the station.

Then click to see weather observations and forecasts.

To change the map : click on the green buttons with a black cross to zoom in, on the green button with a dash to zoom out, or on the green arrows for adjacent maps.


METAR-TAF: